createdAt,value
2023-10-23T00:00:11.784Z,10.48
2023-10-23T00:02:41.405Z,10.39
2023-10-23T00:05:10.941Z,10.31
2023-10-23T00:07:42.044Z,10.30
2023-10-23T00:10:11.468Z,10.31
2023-10-23T00:12:41.975Z,10.22
2023-10-23T00:15:11.301Z,10.21
2023-10-23T00:17:40.478Z,10.24
2023-10-23T00:20:11.985Z,10.15
2023-10-23T00:22:44.591Z,10.17
2023-10-23T00:25:13.450Z,10.17
2023-10-23T00:27:42.316Z,10.09
2023-10-23T00:30:12.310Z,10.03
2023-10-23T00:32:42.191Z,9.93
2023-10-23T00:35:12.093Z,9.87
2023-10-23T00:37:42.706Z,9.84
2023-10-23T00:40:12.432Z,9.72
2023-10-23T00:42:42.292Z,9.71
2023-10-23T00:45:11.643Z,9.72
2023-10-23T00:47:41.073Z,9.66
2023-10-23T00:50:11.388Z,9.60
2023-10-23T00:52:41.735Z,9.61
2023-10-23T00:55:14.075Z,9.52
2023-10-23T00:57:44.743Z,9.55
2023-10-23T01:00:14.952Z,9.56
2023-10-23T01:02:45.138Z,9.56
2023-10-23T01:05:14.237Z,9.54
2023-10-23T01:07:43.674Z,9.53
2023-10-23T01:10:14.752Z,9.53
2023-10-23T01:12:43.991Z,9.55
2023-10-23T01:15:13.112Z,9.53
2023-10-23T01:17:46.517Z,9.58
2023-10-23T01:20:17.085Z,9.58
2023-10-23T01:22:46.226Z,9.61
2023-10-23T01:25:17.974Z,9.55
2023-10-23T01:27:47.804Z,9.62
2023-10-23T01:30:18.169Z,9.57
2023-10-23T01:32:47.675Z,9.55
2023-10-23T01:35:18.083Z,9.49
2023-10-23T01:37:48.992Z,9.52
2023-10-23T01:40:20.583Z,9.43
2023-10-23T01:42:51.330Z,9.42
2023-10-23T01:45:21.733Z,9.33
2023-10-23T01:47:51.765Z,9.32
2023-10-23T01:50:21.857Z,9.33
2023-10-23T01:52:55.131Z,9.36
2023-10-23T01:55:32.623Z,9.28
2023-10-23T01:58:01.736Z,9.21
2023-10-23T02:00:30.951Z,9.21
2023-10-23T02:03:02.437Z,9.16
2023-10-23T02:05:33.604Z,9.19
2023-10-23T02:08:03.822Z,9.17
2023-10-23T02:10:34.169Z,9.14
2023-10-23T02:13:04.116Z,9.14
2023-10-23T02:15:32.950Z,8.91
2023-10-23T02:18:01.988Z,8.89
2023-10-23T02:20:30.580Z,8.92
2023-10-23T02:23:00.029Z,9.09
2023-10-23T02:25:29.941Z,9.12
2023-10-23T02:28:02.176Z,9.14
2023-10-23T02:30:31.817Z,9.15
2023-10-23T02:33:01.123Z,9.04
2023-10-23T02:35:30.055Z,8.95
2023-10-23T02:37:59.820Z,8.92
2023-10-23T02:40:29.328Z,8.87
2023-10-23T02:43:00.384Z,8.82
2023-10-23T02:45:29.819Z,8.81
2023-10-23T02:47:59.240Z,8.78
2023-10-23T02:50:28.904Z,8.80
2023-10-23T02:52:58.604Z,8.74
2023-10-23T02:55:28.296Z,8.76
2023-10-23T02:57:58.324Z,8.75
2023-10-23T03:00:34.051Z,8.67
2023-10-23T03:03:03.475Z,8.63
2023-10-23T03:05:33.823Z,8.54
2023-10-23T03:08:04.040Z,8.48
2023-10-23T03:10:34.823Z,8.49
2023-10-23T03:13:05.457Z,8.54
2023-10-23T03:15:37.502Z,8.52
2023-10-23T03:18:07.734Z,8.46
2023-10-23T03:20:38.059Z,8.43
2023-10-23T03:23:08.469Z,8.35
2023-10-23T03:25:37.659Z,8.38
2023-10-23T03:28:07.065Z,8.41
2023-10-23T03:30:38.271Z,8.37
2023-10-23T03:33:09.188Z,8.37
2023-10-23T03:35:45.467Z,8.31
2023-10-23T03:38:15.816Z,8.30
2023-10-23T03:40:59.831Z,8.35
2023-10-23T03:43:30.059Z,8.29
2023-10-23T03:46:05.232Z,8.18
2023-10-23T03:48:36.212Z,8.23
2023-10-23T03:51:07.581Z,8.24
2023-10-23T03:53:39.095Z,8.26
2023-10-23T03:56:10.145Z,8.26
2023-10-23T03:58:39.011Z,8.20
2023-10-23T04:01:09.441Z,8.19
2023-10-23T04:03:38.394Z,8.14
2023-10-23T04:06:07.843Z,8.13
2023-10-23T04:08:36.686Z,8.03
2023-10-23T04:11:09.810Z,8.05
2023-10-23T04:13:39.287Z,7.96
2023-10-23T04:16:09.733Z,7.98
2023-10-23T04:18:40.174Z,7.99
2023-10-23T04:21:10.794Z,7.98
2023-10-23T04:23:41.198Z,8.03
2023-10-23T04:26:10.708Z,7.97
2023-10-23T04:28:40.187Z,7.91
2023-10-23T04:31:11.246Z,7.94
2023-10-23T04:33:40.387Z,7.86
2023-10-23T04:36:11.240Z,7.80
2023-10-23T04:38:40.364Z,7.75
2023-10-23T04:41:10.255Z,7.74
2023-10-23T04:43:39.667Z,7.69
2023-10-23T04:46:10.897Z,7.70
2023-10-23T04:48:40.279Z,7.67
2023-10-23T04:51:09.634Z,7.57
2023-10-23T04:53:39.011Z,7.64
2023-10-23T04:56:09.560Z,7.73
2023-10-23T04:58:39.566Z,7.81
2023-10-23T05:01:18.833Z,7.81
2023-10-23T05:03:51.625Z,7.85
2023-10-23T05:06:26.372Z,7.78
2023-10-23T05:08:56.519Z,7.81
2023-10-23T05:11:25.742Z,7.85
2023-10-23T05:14:00.318Z,7.88
2023-10-23T05:16:30.701Z,7.94
2023-10-23T05:19:00.000Z,8.05
2023-10-23T05:21:29.447Z,8.09
2023-10-23T05:23:58.995Z,8.08
2023-10-23T05:26:28.020Z,7.97
2023-10-23T05:28:58.843Z,7.95
2023-10-23T05:31:27.726Z,8.08
2023-10-23T05:33:59.473Z,8.02
2023-10-23T05:36:30.648Z,8.01
2023-10-23T05:39:00.594Z,8.04
2023-10-23T05:41:29.477Z,8.13
2023-10-23T05:43:58.753Z,8.13
2023-10-23T05:46:28.091Z,7.98
2023-10-23T05:49:01.180Z,7.84
2023-10-23T05:51:29.975Z,7.79
2023-10-23T05:53:59.502Z,7.83
2023-10-23T05:56:29.466Z,7.83
2023-10-23T05:58:58.209Z,7.80
2023-10-23T06:01:27.025Z,7.74
2023-10-23T06:03:56.283Z,7.68
2023-10-23T06:06:27.612Z,7.66
2023-10-23T06:08:57.353Z,7.62
2023-10-23T06:11:26.872Z,7.62
2023-10-23T06:13:55.622Z,7.69
2023-10-23T06:16:24.919Z,7.71
2023-10-23T06:18:54.686Z,7.73
2023-10-23T06:21:24.322Z,7.78
2023-10-23T06:23:54.661Z,7.79
2023-10-23T06:26:23.484Z,7.73
2023-10-23T06:28:52.702Z,7.75
2023-10-23T06:31:22.501Z,7.77
2023-10-23T06:33:53.159Z,7.70
2023-10-23T06:36:22.164Z,7.80
2023-10-23T06:38:51.322Z,7.77
2023-10-23T06:41:21.443Z,7.83
2023-10-23T06:43:51.073Z,7.89
2023-10-23T06:46:21.023Z,7.91
2023-10-23T06:48:50.809Z,7.82
2023-10-23T06:51:21.137Z,7.87
2023-10-23T06:53:50.431Z,7.94
2023-10-23T06:56:19.284Z,7.95
2023-10-23T06:58:49.415Z,7.99
2023-10-23T07:01:23.881Z,8.04
2023-10-23T07:03:59.799Z,8.15
2023-10-23T07:06:29.877Z,8.30
2023-10-23T07:09:01.139Z,8.39
2023-10-23T07:11:31.823Z,8.55
2023-10-23T07:14:03.570Z,8.66
2023-10-23T07:16:33.920Z,8.79
2023-10-23T07:19:06.188Z,8.77
2023-10-23T07:21:35.554Z,8.86
2023-10-23T07:24:05.893Z,8.80
2023-10-23T07:26:34.703Z,8.78
2023-10-23T07:29:05.090Z,8.86
2023-10-23T07:31:34.238Z,8.95
2023-10-23T07:34:05.886Z,9.02
2023-10-23T07:36:35.165Z,9.05
2023-10-23T07:39:04.515Z,9.12
2023-10-23T07:41:34.206Z,9.27
2023-10-23T07:44:05.588Z,9.41
2023-10-23T07:46:35.741Z,9.38
2023-10-23T07:49:04.802Z,9.47
2023-10-23T07:51:34.208Z,9.49
2023-10-23T07:54:04.951Z,9.57
2023-10-23T07:56:33.983Z,9.73
2023-10-23T07:59:05.418Z,9.87
2023-10-23T08:01:34.283Z,9.94
2023-10-23T08:04:08.095Z,10.07
2023-10-23T08:06:38.949Z,10.23
2023-10-23T08:09:09.488Z,10.41
2023-10-23T08:11:38.721Z,10.62
2023-10-23T08:14:13.713Z,10.70
2023-10-23T08:16:42.634Z,11.05
2023-10-23T08:19:12.767Z,12.11
2023-10-23T08:21:41.985Z,13.11
2023-10-23T08:24:11.789Z,13.81
2023-10-23T08:26:40.923Z,14.35
2023-10-23T08:29:10.440Z,14.78
2023-10-23T08:31:41.030Z,15.17
2023-10-23T08:34:10.799Z,14.89
2023-10-23T08:36:40.071Z,15.05
2023-10-23T08:39:09.501Z,15.01
2023-10-23T08:41:42.539Z,15.09
2023-10-23T08:44:12.449Z,15.32
2023-10-23T08:46:43.694Z,15.82
2023-10-23T08:49:15.957Z,15.75
2023-10-23T08:51:50.023Z,15.51
2023-10-23T08:54:21.312Z,14.84
2023-10-23T08:56:57.624Z,15.22
2023-10-23T08:59:27.177Z,15.88
2023-10-23T09:02:01.981Z,16.28
2023-10-23T09:04:32.922Z,15.57
2023-10-23T09:07:02.454Z,16.13
2023-10-23T09:09:32.050Z,16.01
2023-10-23T09:12:02.871Z,16.09
2023-10-23T09:14:33.365Z,15.58
2023-10-23T09:17:06.225Z,16.51
2023-10-23T09:19:38.034Z,17.13
2023-10-23T09:22:13.537Z,16.43
2023-10-23T09:24:46.405Z,16.02
2023-10-23T09:27:16.732Z,15.23
2023-10-23T09:29:46.669Z,15.06
2023-10-23T09:32:21.046Z,14.83
2023-10-23T09:34:50.330Z,14.84
2023-10-23T09:37:20.085Z,15.16
2023-10-23T09:39:48.793Z,15.34
2023-10-23T09:42:19.346Z,15.11
2023-10-23T09:44:51.161Z,15.13
2023-10-23T09:47:22.990Z,15.07
2023-10-23T09:49:57.065Z,15.28
2023-10-23T09:52:28.585Z,15.26
2023-10-23T09:55:02.376Z,15.46
2023-10-23T09:57:36.269Z,15.41
2023-10-23T10:00:14.284Z,15.61
2023-10-23T10:02:48.258Z,15.69
2023-10-23T10:05:22.949Z,15.84
2023-10-23T10:08:01.539Z,15.91
2023-10-23T10:10:38.205Z,16.07
2023-10-23T10:13:08.768Z,16.10
2023-10-23T10:15:40.987Z,16.27
2023-10-23T10:18:13.244Z,16.64
2023-10-23T10:20:45.496Z,16.40
2023-10-23T10:23:18.043Z,16.49
2023-10-23T10:25:49.045Z,16.32
2023-10-23T10:28:31.399Z,16.23
2023-10-23T10:31:00.617Z,16.39
2023-10-23T10:34:27.990Z,16.33
2023-10-23T10:36:41.528Z,16.15
2023-10-23T10:39:15.814Z,16.13
2023-10-23T10:41:47.687Z,16.18
2023-10-23T10:44:21.050Z,16.04
2023-10-23T10:46:56.025Z,16.07
2023-10-23T10:49:28.102Z,15.98
2023-10-23T10:51:57.376Z,16.15
2023-10-23T10:54:35.060Z,16.20
2023-10-23T10:57:05.797Z,16.33
2023-10-23T10:59:36.301Z,16.63
2023-10-23T11:02:08.459Z,16.63
2023-10-23T11:04:39.711Z,16.58
2023-10-23T11:07:10.265Z,16.52
2023-10-23T11:09:39.281Z,16.74
2023-10-23T11:12:09.513Z,16.74
2023-10-23T11:14:39.380Z,16.40
2023-10-23T11:17:09.688Z,15.87
2023-10-23T11:19:42.714Z,16.17
2023-10-23T11:22:13.327Z,16.28
2023-10-23T11:24:42.427Z,16.52
2023-10-23T11:27:12.321Z,16.73
2023-10-23T11:29:44.627Z,16.52
2023-10-23T11:32:15.036Z,16.69
2023-10-23T11:34:47.129Z,17.09
2023-10-23T11:37:16.199Z,16.73
2023-10-23T11:39:45.004Z,16.67
2023-10-23T11:42:15.681Z,16.73
2023-10-23T11:44:44.489Z,16.67
2023-10-23T11:47:13.924Z,16.88
2023-10-23T11:49:51.882Z,16.99
2023-10-23T11:52:23.520Z,17.02
2023-10-23T11:54:53.578Z,17.03
2023-10-23T11:57:24.647Z,16.97
2023-10-23T11:59:54.140Z,16.85
2023-10-23T12:02:23.220Z,16.93
2023-10-23T12:04:53.520Z,16.92
2023-10-23T12:07:22.715Z,16.78
2023-10-23T12:09:52.019Z,16.76
2023-10-23T12:12:21.416Z,16.72
2023-10-23T12:14:50.725Z,16.79
2023-10-23T12:17:20.554Z,17.01
2023-10-23T12:19:50.111Z,17.10
2023-10-23T12:22:20.769Z,16.98
2023-10-23T12:24:51.369Z,16.98
2023-10-23T12:30:06.967Z,17.00
2023-10-23T12:33:14.779Z,17.23
2023-10-23T12:35:34.173Z,17.39
2023-10-23T12:38:06.134Z,17.38
2023-10-23T12:40:37.275Z,17.49
2023-10-23T12:43:07.870Z,17.23
2023-10-23T12:45:37.786Z,17.01
2023-10-23T12:48:08.237Z,17.24
2023-10-23T12:50:39.208Z,17.16
2023-10-23T12:53:10.666Z,16.91
2023-10-23T12:55:41.522Z,16.95
2023-10-23T12:58:12.169Z,16.84
2023-10-23T13:00:41.918Z,16.93
2023-10-23T13:03:12.400Z,16.87
2023-10-23T13:05:42.641Z,16.83
2023-10-23T13:08:15.847Z,16.74
2023-10-23T13:10:47.557Z,16.73
2023-10-23T13:13:19.466Z,16.68
2023-10-23T13:15:51.272Z,16.57
2023-10-23T13:18:20.684Z,16.58
2023-10-23T13:21:30.611Z,16.46
2023-10-23T13:23:40.751Z,16.53
2023-10-23T13:26:13.813Z,16.62
2023-10-23T13:28:51.158Z,16.54
2023-10-23T13:31:20.451Z,16.48
2023-10-23T13:33:51.480Z,16.36
2023-10-23T13:36:21.432Z,16.28
2023-10-23T13:38:56.332Z,16.25
2023-10-23T13:41:28.323Z,16.09
2023-10-23T13:43:59.032Z,16.10
2023-10-23T13:46:28.268Z,16.16
2023-10-23T13:48:58.323Z,16.08
2023-10-23T13:51:27.649Z,15.96
2023-10-23T13:53:58.770Z,16.09
2023-10-23T13:56:29.127Z,16.11
2023-10-23T13:58:58.177Z,16.20
2023-10-23T14:01:27.903Z,16.30
2023-10-23T14:03:58.938Z,16.45
2023-10-23T14:06:29.373Z,16.52
2023-10-23T14:09:40.326Z,16.63
2023-10-23T14:12:00.822Z,16.72
2023-10-23T14:14:30.925Z,16.73
2023-10-23T14:17:01.559Z,16.84
2023-10-23T14:19:45.745Z,17.04
2023-10-23T14:22:17.450Z,17.01
2023-10-23T14:24:50.016Z,16.98
2023-10-23T14:27:20.020Z,16.77
2023-10-23T14:29:51.093Z,16.58
2023-10-23T14:32:20.299Z,16.47
2023-10-23T14:34:49.692Z,16.42
2023-10-23T14:37:19.078Z,16.32
2023-10-23T14:39:49.674Z,16.34
2023-10-23T14:42:20.485Z,16.39
2023-10-23T14:44:50.796Z,16.37
2023-10-23T14:47:22.722Z,16.20
2023-10-23T14:49:53.994Z,16.26
2023-10-23T14:52:24.217Z,16.33
2023-10-23T14:54:57.118Z,16.37
2023-10-23T14:57:26.696Z,16.35
2023-10-23T14:59:57.314Z,16.29
2023-10-23T15:02:27.931Z,16.34
2023-10-23T15:04:57.286Z,16.25
2023-10-23T15:07:27.401Z,16.16
2023-10-23T15:09:58.274Z,16.10
2023-10-23T15:12:28.046Z,16.12
2023-10-23T15:14:58.274Z,16.06
2023-10-23T15:17:28.518Z,15.86
2023-10-23T15:19:57.624Z,15.88
2023-10-23T15:22:29.602Z,15.77
2023-10-23T15:25:00.355Z,15.90
2023-10-23T15:27:29.970Z,15.90
2023-10-23T15:29:59.196Z,15.87
2023-10-23T15:32:28.042Z,16.00
2023-10-23T15:34:58.136Z,15.98
2023-10-23T15:37:28.551Z,15.96
2023-10-23T15:40:00.264Z,15.75
2023-10-23T15:42:29.983Z,15.73
2023-10-23T15:45:01.554Z,15.77
2023-10-23T15:47:32.902Z,15.82
2023-10-23T15:50:04.314Z,15.84
2023-10-23T15:52:36.737Z,15.81
2023-10-23T15:55:12.240Z,15.81
2023-10-23T15:57:42.036Z,15.77
2023-10-23T16:00:13.743Z,15.77
2023-10-23T16:02:42.734Z,15.79
2023-10-23T16:05:11.963Z,15.75
2023-10-23T16:07:45.774Z,15.65
2023-10-23T16:10:16.625Z,15.28
2023-10-23T16:12:45.767Z,15.10
2023-10-23T16:15:17.295Z,14.90
2023-10-23T16:17:46.763Z,14.77
2023-10-23T16:20:16.535Z,14.73
2023-10-23T16:22:49.506Z,14.69
2023-10-23T16:25:22.234Z,14.68
2023-10-23T16:27:53.613Z,14.64
2023-10-23T16:30:23.892Z,14.53
2023-10-23T16:32:55.273Z,14.53
2023-10-23T16:35:26.328Z,14.45
2023-10-23T16:37:56.577Z,14.44
2023-10-23T16:40:27.984Z,14.44
2023-10-23T16:42:57.374Z,14.43
2023-10-23T16:45:28.842Z,14.43
2023-10-23T16:47:58.955Z,14.43
2023-10-23T16:50:29.490Z,14.38
2023-10-23T16:53:00.056Z,14.27
2023-10-23T16:55:30.907Z,14.26
2023-10-23T16:58:01.148Z,14.26
2023-10-23T17:00:32.634Z,14.23
2023-10-23T17:03:03.123Z,14.21
2023-10-23T17:05:36.968Z,14.19
2023-10-23T17:08:06.500Z,14.10
2023-10-23T17:10:38.274Z,14.09
2023-10-23T17:13:07.317Z,14.14
2023-10-23T17:15:42.388Z,14.09
2023-10-23T17:18:11.476Z,14.16
2023-10-23T17:20:48.001Z,14.08
2023-10-23T17:23:19.372Z,14.01
2023-10-23T17:25:51.124Z,14.07
2023-10-23T17:28:24.298Z,14.06
2023-10-23T17:30:58.902Z,14.09
2023-10-23T17:33:31.147Z,14.09
2023-10-23T17:36:01.807Z,14.07
2023-10-23T17:38:31.012Z,14.00
2023-10-23T17:41:01.759Z,13.90
2023-10-23T17:43:32.520Z,13.83
2023-10-23T17:46:05.304Z,13.76
2023-10-23T17:48:33.969Z,13.74
2023-10-23T17:51:04.866Z,13.68
2023-10-23T17:53:37.138Z,13.73
2023-10-23T17:56:10.796Z,13.77
2023-10-23T17:58:41.285Z,13.72
2023-10-23T18:01:15.942Z,13.74
2023-10-23T18:03:51.690Z,13.74
2023-10-23T18:06:21.098Z,13.62
2023-10-23T18:08:52.489Z,13.55
2023-10-23T18:11:23.138Z,13.56
2023-10-23T18:13:53.158Z,13.54
2023-10-23T18:16:25.314Z,13.56
2023-10-23T18:18:56.029Z,13.56
2023-10-23T18:21:25.785Z,13.52
2023-10-23T18:23:55.087Z,13.53
2023-10-23T18:26:26.320Z,13.53
2023-10-23T18:28:58.789Z,13.53
2023-10-23T18:31:28.953Z,13.55
2023-10-23T18:34:01.701Z,13.54
2023-10-23T18:36:35.681Z,13.54
2023-10-23T18:39:05.504Z,13.53
2023-10-23T18:41:41.729Z,13.49
2023-10-23T18:44:13.492Z,13.45
2023-10-23T18:46:42.922Z,13.44
2023-10-23T18:49:11.986Z,13.43
2023-10-23T18:51:41.123Z,13.42
2023-10-23T18:54:10.237Z,13.40
2023-10-23T18:56:41.285Z,13.43
2023-10-23T18:59:16.438Z,13.47
2023-10-23T19:01:45.866Z,13.51
2023-10-23T19:04:16.037Z,13.50
2023-10-23T19:06:46.336Z,13.56
2023-10-23T19:09:16.185Z,13.52
2023-10-23T19:11:49.514Z,13.51
2023-10-23T19:14:20.517Z,13.52
2023-10-23T19:16:53.189Z,13.40
2023-10-23T19:19:23.353Z,13.34
2023-10-23T19:21:59.852Z,13.39
2023-10-23T19:24:29.000Z,13.38
2023-10-23T19:26:59.606Z,13.38
2023-10-23T19:29:28.648Z,13.27
2023-10-23T19:32:00.734Z,13.21
2023-10-23T19:34:34.136Z,13.32
2023-10-23T19:37:03.692Z,13.32
2023-10-23T19:39:33.489Z,13.20
2023-10-23T19:42:08.014Z,13.18
2023-10-23T19:44:37.618Z,13.16
2023-10-23T19:47:11.108Z,13.16
2023-10-23T19:49:48.049Z,13.05
2023-10-23T19:52:20.502Z,13.04
2023-10-23T19:54:50.987Z,12.93
2023-10-23T19:57:22.443Z,12.85
2023-10-23T19:59:55.073Z,12.92
2023-10-23T20:02:23.945Z,13.01
2023-10-23T20:04:54.122Z,12.92
2023-10-23T20:07:32.781Z,12.92
2023-10-23T20:10:02.250Z,12.92
2023-10-23T20:12:37.177Z,12.82
2023-10-23T20:15:07.304Z,12.82
2023-10-23T20:17:36.968Z,12.87
2023-10-23T20:20:06.781Z,13.10
2023-10-23T20:22:36.440Z,13.08
2023-10-23T20:25:07.059Z,13.03
2023-10-23T20:27:37.742Z,12.98
2023-10-23T20:30:08.288Z,12.99
2023-10-23T20:32:37.677Z,13.04
2023-10-23T20:35:07.927Z,12.97
2023-10-23T20:37:37.481Z,13.04
2023-10-23T20:40:08.469Z,13.16
2023-10-23T20:42:41.724Z,13.19
2023-10-23T20:45:13.357Z,13.15
2023-10-23T20:47:43.051Z,13.15
2023-10-23T20:50:13.627Z,13.24
2023-10-23T20:52:43.574Z,13.16
2023-10-23T20:55:12.625Z,13.15
2023-10-23T20:57:43.442Z,13.27
2023-10-23T21:00:15.802Z,13.30
2023-10-23T21:02:46.644Z,13.27
2023-10-23T21:05:15.688Z,13.30
2023-10-23T21:07:45.747Z,13.33
2023-10-23T21:10:16.996Z,13.37
2023-10-23T21:12:47.809Z,13.34
2023-10-23T21:15:17.014Z,13.26
2023-10-23T21:17:46.753Z,13.30
2023-10-23T21:20:17.434Z,13.32
2023-10-23T21:22:48.583Z,13.31
2023-10-23T21:25:19.939Z,13.27
2023-10-23T21:27:52.053Z,13.26
2023-10-23T21:30:21.065Z,13.27
2023-10-23T21:32:50.079Z,13.32
2023-10-23T21:35:19.151Z,13.30
2023-10-23T21:37:50.116Z,13.25
2023-10-23T21:40:20.208Z,13.26
2023-10-23T21:42:56.453Z,13.34
2023-10-23T21:45:28.332Z,13.31
2023-10-23T21:47:57.528Z,13.30
2023-10-23T21:50:26.432Z,13.28
2023-10-23T21:52:57.583Z,13.21
2023-10-23T21:55:32.952Z,13.19
2023-10-23T21:58:05.154Z,13.22
2023-10-23T22:00:37.422Z,13.24
2023-10-23T22:03:07.683Z,13.14
2023-10-23T22:05:37.505Z,13.05
2023-10-23T22:08:10.567Z,12.86
2023-10-23T22:10:42.123Z,12.77
2023-10-23T22:13:13.871Z,12.73
2023-10-23T22:15:45.748Z,12.78
2023-10-23T22:18:14.947Z,12.79
2023-10-23T22:20:44.315Z,12.71
2023-10-23T22:23:14.316Z,12.76
2023-10-23T22:25:43.209Z,12.67
2023-10-23T22:28:13.776Z,12.58
2023-10-23T22:30:43.599Z,12.70
2023-10-23T22:33:18.037Z,12.70
2023-10-23T22:35:47.988Z,12.71
2023-10-23T22:38:16.854Z,12.74
2023-10-23T22:40:46.259Z,12.80
2023-10-23T22:43:17.783Z,12.85
2023-10-23T22:45:55.890Z,12.93
2023-10-23T22:48:31.791Z,12.98
2023-10-23T22:51:01.326Z,12.99
2023-10-23T22:53:31.133Z,13.00
2023-10-23T22:56:04.206Z,13.06
2023-10-23T22:58:39.214Z,13.13
2023-10-23T23:01:11.639Z,12.96
2023-10-23T23:03:42.895Z,13.06
2023-10-23T23:06:13.601Z,13.06
2023-10-23T23:08:47.214Z,13.06
2023-10-23T23:11:15.669Z,12.94
2023-10-23T23:13:47.033Z,12.97
2023-10-23T23:16:19.770Z,12.81
2023-10-23T23:18:51.136Z,12.59
2023-10-23T23:21:24.038Z,12.57
2023-10-23T23:23:54.639Z,12.85
2023-10-23T23:26:23.556Z,12.86
2023-10-23T23:28:55.336Z,12.87
2023-10-23T23:31:25.164Z,12.94
2023-10-23T23:33:55.842Z,12.82
2023-10-23T23:36:25.736Z,12.42
2023-10-23T23:38:58.045Z,12.33
2023-10-23T23:41:27.825Z,12.27
2023-10-23T23:43:59.065Z,12.50
2023-10-23T23:46:28.104Z,12.55
2023-10-23T23:48:57.078Z,12.48
2023-10-23T23:51:26.158Z,12.43
2023-10-23T23:53:55.329Z,12.42
2023-10-23T23:56:25.656Z,12.36
2023-10-23T23:58:54.870Z,12.40
